Aplicació Alertes

Dades de l'estació automàtica el Montmell

?
?
Resum diari 22:30 TU
Dades diàries de l'estació meteorològica
Temperatura mitjana 5.5 °C
Temperatura màxima 10.8 °C 11:32 TU
Temperatura mínima 2.0 °C 7:15 TU
Humitat relativa mitjana 47%
Precipitació acumulada 0.0 mm
Ratxa màxima del vent (6 m) 29.5 km/h - 275º 20:54 TU
Irradiació solar global 8.8 MJ/m2

El tram horari està expressat en Temps Universal (TU). Cal sumar una hora en horari d'hivern i dues en horari d'estiu per passar a l'hora oficial.

el Montmell

Metadades estació meteorol´gica
Municipi El Montmell
Comarca Baix Penedès
Altitud 545 m
Data alta 13.07.1995
Estat actual Operativa
Dades de període
Període
TU
TM
°C
TX
°C
TN
°C
HRM
%
PPT
mm
VVM (6 m)
km/h
DVM (6 m)
graus
VVX (6 m)
km/h
RS
W/m2
00:00 - 00:30 4.5 4.7 4.2 45 0.0 10.1 346 29.2 0
00:30 - 01:00 5.0 5.8 4.3 41 0.0 8.3 333 23.8 0
01:00 - 01:30 4.6 5.6 3.8 44 0.0 4.3 314 17.3 0
01:30 - 02:00 3.5 3.7 3.3 54 0.0 2.9 313 14.4 0
02:00 - 02:30 3.4 3.6 3.2 57 0.0 3.6 265 23.8 0
02:30 - 03:00 3.0 3.2 3.0 61 0.0 5.4 291 18.0 0
03:00 - 03:30 2.8 3.0 2.6 64 0.0 8.6 292 23.4 0
03:30 - 04:00 3.2 3.8 2.9 55 0.0 5.8 307 22.3 0
04:00 - 04:30 3.9 4.0 3.7 45 0.0 2.9 302 16.9 0
04:30 - 05:00 3.7 3.9 3.5 46 0.0 5.0 280 20.2 0
05:00 - 05:30 3.3 3.4 2.9 49 0.0 5.4 273 18.7 0
05:30 - 06:00 3.3 3.6 2.8 46 0.0 5.4 311 16.2 0
06:00 - 06:30 3.6 4.1 2.9 41 0.0 5.8 319 25.6 0
06:30 - 07:00 2.8 3.1 2.4 48 0.0 4.3 296 18.0 0
07:00 - 07:30 2.3 2.5 2.0 50 0.0 3.6 309 13.0 3
07:30 - 08:00 2.7 3.2 2.4 47 0.0 3.6 305 11.9 15
08:00 - 08:30 4.1 4.4 3.3 41 0.0 9.4 331 25.2 114
08:30 - 09:00 4.7 5.1 4.4 40 0.0 10.1 343 25.6 206
09:00 - 09:30 5.4 6.0 5.1 39 0.0 8.6 340 23.0 277
09:30 - 10:00 6.7 7.4 6.0 36 0.0 4.7 336 17.3 339
10:00 - 10:30 7.8 8.3 7.5 33 0.0 5.8 330 16.9 389
10:30 - 11:00 8.9 9.5 8.4 31 0.0 3.2 326 13.3 424
11:00 - 11:30 8.8 10.3 8.2 32 0.0 5.4 323 15.8 449
11:30 - 12:00 9.9 10.8 8.9 33 0.0 5.4 260 20.9 457
12:00 - 12:30 9.4 10.1 9.0 36 0.0 4.3 266 21.6 450
12:30 - 13:00 9.0 9.7 8.1 38 0.0 4.0 271 17.3 429
13:00 - 13:30 8.0 8.5 7.9 40 0.0 6.1 283 18.7 395
13:30 - 14:00 8.1 8.3 7.8 39 0.0 6.8 275 25.2 347
14:00 - 14:30 7.8 8.3 7.3 39 0.0 6.5 276 25.2 287
14:30 - 15:00 7.3 7.6 7.0 43 0.0 6.1 259 22.3 217
15:00 - 15:30 7.3 7.6 7.0 41 0.0 8.6 250 24.8 112
15:30 - 16:00 6.6 7.0 5.9 40 0.0 7.2 258 23.4 25
16:00 - 16:30 5.8 6.0 5.5 40 0.0 6.8 258 19.4 7
16:30 - 17:00 5.3 5.5 5.2 41 0.0 5.0 263 21.6 0
17:00 - 17:30 5.5 5.6 5.3 47 0.0 6.5 262 25.6 0
17:30 - 18:00 5.5 5.7 5.3 53 0.0 7.2 261 27.0 0
18:00 - 18:30 5.6 5.7 5.5 53 0.0 5.8 267 24.5 0
18:30 - 19:00 5.8 6.0 5.6 56 0.0 6.8 271 25.2 0
19:00 - 19:30 6.0 6.1 5.9 57 0.0 6.5 269 23.0 0
19:30 - 20:00 5.9 6.0 5.8 59 0.0 7.2 264 21.6 0
20:00 - 20:30 5.9 6.0 5.9 58 0.0 6.8 272 21.2 0
20:30 - 21:00 5.8 5.9 5.7 58 0.0 6.1 279 29.5 0
21:00 - 21:30 5.5 5.7 5.3 59 0.0 5.4 278 22.7 0
21:30 - 22:00 5.3 5.5 5.2 59 0.0 4.7 279 19.1 0
22:00 - 22:30 5.8 5.9 5.4 55 0.0 4.3 304 19.4 0
22:30 - 23:00 5.9 6.2 5.6 51 0.0 1.8 285 9.0 0
23:00 - 23:30 (s/d) (s/d) (s/d) (s/d) (s/d) (s/d) (s/d) (s/d) (s/d)

Les dades en taronja només han passat un control de qualitat automàtic. Resta pendent la seva validació definitiva.